• Join FlightAware (Why Join?)
  • Login
  • US Flag GB Flag 
12:04 EDT


 

Airport Tracker/Info


-or-


 

Live Flight TrackerFlight Track Log ✈ SKW5631 ✈ 16-Dec-2013 ✈ KSFO - KBUR

Flight Track Log - Related Links

Times and Time Zones

All times are in EST time to prevent confusion due to time zone crossing. See the SKW5631 flight status page for this flight to view local times or setup timezone preferences in your user account.

Time Position Orientation Groundspeed Altitude Reporting Facility
EST Latitude Longitude Course Direction KTS MPH feet Rate Location/Type
22:38 37.6897 -122.4014 135° Southeast 254 292 3,400  Level Oakland Center
22:39 37.3400 -122.0275 130° Southeast  Level Estimated
22:39 37.7044 -122.4767 284° West 222 255 6,200  Level Oakland Center
22:40 37.2467 -121.9122 133° Southeast  Level Estimated
22:40 37.6619 -122.5411 230° Southwest 238 274 8,600  Level Oakland Center
22:41 37.1189 -121.8766 167° South  Level FlightAware Approximate
22:41 37.5964 -122.5228 168° South 250 288 10,500  Level Oakland Center
22:42 37.0271 -121.7598 135° Southeast  Level Estimated
22:42 37.5386 -122.4567 138° Southeast 279 321 11,800  Level Oakland Center
22:43 37.4692 -122.3803 139° Southeast 326 375 12,500 960 Climbing Oakland Center
22:44 37.3922 -122.2961 139° Southeast 362 417 13,800 1,200 Climbing Oakland Center
22:45 37.3156 -122.2111 139° Southeast 368 423 15,000 840 Climbing Oakland Center
22:46 37.2339 -122.1211 139° Southeast 388 447 15,600 1,080 Climbing Oakland Center
22:47 37.1528 -122.0336 139° Southeast 387 445 17,200 1,380 Climbing Oakland Center
22:48 37.0733 -121.9464 139° Southeast 382 440 18,500 1,500 Climbing Oakland Center
22:49 36.9792 -121.8444 139° Southeast 374 430 20,300 1,620 Climbing Oakland Center
22:50 36.8992 -121.7622 141° Southeast 373 429 21,800 1,440 Climbing Oakland Center
22:51 36.8231 -121.6789 139° Southeast 366 421 23,300 1,380 Climbing Oakland Center
22:52 36.7508 -121.6033 140° Southeast 364 419 24,700 780 Climbing Oakland Center
22:53 36.6739 -121.5181 138° Southeast 371 427 25,000 120 Climbing Oakland Center
22:54 36.5886 -121.4281 140° Southeast 400 460 25,000  Level Oakland Center
22:55 36.4992 -121.3350 140° Southeast 416 479 25,000  Level Oakland Center
22:56 36.4083 -121.2367 139° Southeast 431 496 25,000  Level Oakland Center
22:57 36.3153 -121.1383 140° Southeast 439 505 25,000  Level Oakland Center
22:58 36.2053 -121.0206 139° Southeast 438 504 25,000  Level Oakland Center
22:59 36.1125 -120.9225 139° Southeast 440 506 25,000  Level Oakland Center
23:00 36.0197 -120.8253 140° Southeast 438 504 25,000  Level Oakland Center
23:01 35.9272 -120.7272 139° Southeast 440 506 25,000  Level Oakland Center
23:02 35.8339 -120.6283 139° Southeast 441 507 25,000  Level Oakland Center
23:03 35.7394 -120.5314 140° Southeast 442 509 25,000  Level Oakland Center
23:04 35.6461 -120.4331 139° Southeast 442 509 25,000  Level Oakland Center
23:05 35.5511 -120.3344 140° Southeast 443 510 25,000 -240 Level Oakland Center
23:06 35.4608 -120.2411 140° Southeast 445 512 24,600 -540 Descending Oakland Center
23:07 35.3539 -120.1308 140° Southeast 454 522 24,000 -300 Descending Oakland Center
23:08 35.2572 -120.0325 140° Southeast 450 518 24,000  Level Oakland Center
23:09 35.1631 -119.9364 140° Southeast 441 507 24,000  Level Oakland Center
23:10 35.0731 -119.8381 138° Southeast 435 501 24,000  Level Oakland Center
23:11 34.9928 -119.7281 132° Southeast 434 499 24,000 -840 Level Oakland Center
23:12 34.9117 -119.6194 132° Southeast 433 498 22,400 -1,860 Descending Oakland Center
23:13 34.8317 -119.5114 132° Southeast 433 498 20,300 -2,340 Descending Oakland Center
23:14 34.7406 -119.3894 132° Southeast 413 475 17,700 -2,220 Descending Oakland Center
23:15 34.6686 -119.2933 132° Southeast 394 453 15,900 -1,920 Descending Oakland Center
23:16 34.5969 -119.1989 133° Southeast 384 442 13,800 -1,920 Descending Oakland Center
23:18 34.5000 -119.0667 132° Southeast 342 394 11,100 -1,320 Descending Southern California TRACON
23:19 34.4500 -119.0000 132° Southeast 277 319 10,700 -1,080 Descending Southern California TRACON
23:20 34.4000 -118.9333 132° Southeast 273 314 9,100 -1,620 Descending Southern California TRACON
23:21 34.3500 -118.8500 126° Southeast 261 300 7,500 -1,620 Descending Southern California TRACON
23:22 34.3167 -118.7833 121° Southeast 252 290 5,900 -1,260 Descending Southern California TRACON
23:23 34.2667 -118.7167 132° Southeast 243 280 5,000 -480 Descending Southern California TRACON
23:24 34.2333 -118.6500 121° Southeast 217 250 5,000 -360 Level Southern California TRACON
23:25 34.2000 -118.6000 129° Southeast 193 222 4,300 -780 Descending Southern California TRACON
23:26 34.2000 -118.5500 90° East 175 201 3,600 -660 Descending Southern California TRACON
23:27 34.2000 -118.4833 90° East 170 196 3,000 -840 Descending Southern California TRACON
23:28 34.2000 -118.4333 90° East 143 165 2,000 -900 Descending Southern California TRACON
23:29 34.2000 -118.4000 90° East 148 170 1,300 -720 Descending Southern California TRACON